createdAt,value
2017-04-24T00:00:47.949Z,945.2
2017-04-24T00:01:56.022Z,945.3
2017-04-24T00:03:04.112Z,945.2
2017-04-24T00:04:12.200Z,945.2
2017-04-24T00:05:20.345Z,945.2
2017-04-24T00:06:28.377Z,945.2
2017-04-24T00:07:36.467Z,945.1
2017-04-24T00:08:44.728Z,945.1
2017-04-24T00:09:52.638Z,945.1
2017-04-24T00:11:00.778Z,945.1
2017-04-24T00:12:08.939Z,945.1
2017-04-24T00:13:16.908Z,945.0
2017-04-24T00:14:25.073Z,945.0
2017-04-24T00:15:33.079Z,945.0
2017-04-24T00:16:41.219Z,945.0
2017-04-24T00:17:49.252Z,944.9
2017-04-24T00:18:57.342Z,944.9
2017-04-24T00:20:05.429Z,944.9
2017-04-24T00:21:13.523Z,944.9
2017-04-24T00:22:21.726Z,944.9
2017-04-24T00:23:29.701Z,944.9
2017-04-24T00:24:37.783Z,944.9
2017-04-24T00:25:45.894Z,944.9
2017-04-24T00:26:53.952Z,944.9
2017-04-24T00:28:02.165Z,944.9
2017-04-24T00:29:10.133Z,944.9
2017-04-24T00:30:18.313Z,944.8
2017-04-24T00:31:26.310Z,944.8
2017-04-24T00:32:34.397Z,944.8
2017-04-24T00:33:42.552Z,944.7
2017-04-24T00:34:50.577Z,944.7
2017-04-24T00:35:58.663Z,944.7
2017-04-24T00:37:06.747Z,944.6
2017-04-24T00:38:14.832Z,944.7
2017-04-24T00:39:23.043Z,944.6
2017-04-24T00:40:31.148Z,944.6
2017-04-24T00:41:39.230Z,944.6
2017-04-24T00:42:47.179Z,944.6
2017-04-24T00:43:55.393Z,944.6
2017-04-24T00:45:03.417Z,944.6
2017-04-24T00:46:11.443Z,944.6
2017-04-24T00:47:19.533Z,944.6
2017-04-24T00:48:27.620Z,944.6
2017-04-24T00:49:35.701Z,944.6
2017-04-24T00:50:43.908Z,944.5
2017-04-24T00:51:51.951Z,944.6
2017-04-24T00:52:59.970Z,944.5
2017-04-24T00:54:08.050Z,944.5
2017-04-24T00:55:16.142Z,944.5
2017-04-24T00:56:24.286Z,944.5
2017-04-24T00:57:32.318Z,944.5
2017-04-24T00:58:40.401Z,944.5
2017-04-24T00:59:48.609Z,944.5
2017-04-24T01:00:56.572Z,944.5
2017-04-24T01:02:04.833Z,944.4
2017-04-24T01:03:12.789Z,944.4
2017-04-24T01:04:20.839Z,944.4
2017-04-24T01:05:28.926Z,944.4
2017-04-24T01:06:37.098Z,944.4
2017-04-24T01:07:45.339Z,944.4
2017-04-24T01:08:53.184Z,944.4
2017-04-24T01:10:01.269Z,944.4
2017-04-24T01:11:09.359Z,944.4
2017-04-24T01:12:17.451Z,944.3
2017-04-24T01:13:25.659Z,944.4
2017-04-24T01:14:33.617Z,944.4
2017-04-24T01:15:41.830Z,944.3
2017-04-24T01:16:49.795Z,944.3
2017-04-24T01:17:58.071Z,944.3
2017-04-24T01:19:06.026Z,944.3
2017-04-24T01:20:14.059Z,944.3
2017-04-24T01:21:22.138Z,944.3
2017-04-24T01:22:30.230Z,944.3
2017-04-24T01:23:38.450Z,944.3
2017-04-24T01:24:46.516Z,944.3
2017-04-24T01:25:54.487Z,944.2
2017-04-24T01:27:02.579Z,944.2
2017-04-24T01:28:10.664Z,944.3
2017-04-24T01:29:18.933Z,944.2
2017-04-24T01:30:26.958Z,944.2
2017-04-24T01:31:34.981Z,944.2
2017-04-24T01:32:43.011Z,944.2
2017-04-24T01:33:51.092Z,944.2
2017-04-24T01:34:59.183Z,944.2
2017-04-24T01:36:07.392Z,944.2
2017-04-24T01:37:15.353Z,944.2
2017-04-24T01:38:23.445Z,944.2
2017-04-24T01:39:31.675Z,944.1
2017-04-24T01:40:39.662Z,944.2
2017-04-24T01:41:47.754Z,944.1
2017-04-24T01:42:55.798Z,944.1
2017-04-24T01:44:03.873Z,944.1
2017-04-24T01:45:11.957Z,944.1
2017-04-24T01:46:20.082Z,944.1
2017-04-24T01:47:28.252Z,944.1
2017-04-24T01:48:36.211Z,944.1
2017-04-24T01:49:44.300Z,944.0
2017-04-24T01:50:52.577Z,944.1
2017-04-24T01:52:00.475Z,944.0
2017-04-24T01:53:08.678Z,944.0
2017-04-24T01:54:16.648Z,944.0
2017-04-24T01:55:24.738Z,944.0
2017-04-24T01:56:32.847Z,944.0
2017-04-24T01:57:40.925Z,944.0
2017-04-24T01:58:49.063Z,944.0
2017-04-24T01:59:57.082Z,944.0
2017-04-24T02:01:05.226Z,944.0
2017-04-24T02:02:13.294Z,944.0
2017-04-24T02:03:21.468Z,943.9
2017-04-24T02:04:29.552Z,943.9
2017-04-24T02:05:37.520Z,943.9
2017-04-24T02:06:45.608Z,943.9
2017-04-24T02:07:53.696Z,943.9
2017-04-24T02:09:01.777Z,943.9
2017-04-24T02:10:09.921Z,943.9
2017-04-24T02:11:17.950Z,943.9
2017-04-24T02:12:26.116Z,943.8
2017-04-24T02:13:34.123Z,943.8
2017-04-24T02:14:42.210Z,943.8
2017-04-24T02:15:50.420Z,943.8
2017-04-24T02:16:58.384Z,943.8
2017-04-24T02:18:06.477Z,943.8
2017-04-24T02:19:14.682Z,943.8
2017-04-24T02:20:22.658Z,943.8
2017-04-24T02:21:30.801Z,943.8
2017-04-24T02:22:38.843Z,943.8
2017-04-24T02:23:46.917Z,943.8
2017-04-24T02:24:55.002Z,943.7
2017-04-24T02:26:03.091Z,943.8
2017-04-24T02:27:11.312Z,943.7
2017-04-24T02:28:19.260Z,943.7
2017-04-24T02:29:27.350Z,943.7
2017-04-24T02:30:35.434Z,943.7
2017-04-24T02:31:43.524Z,943.7
2017-04-24T02:32:51.726Z,943.7
2017-04-24T02:33:59.696Z,943.7
2017-04-24T02:35:07.861Z,943.7
2017-04-24T02:36:15.861Z,943.6
2017-04-24T02:37:23.948Z,943.6
2017-04-24T02:38:32.269Z,943.6
2017-04-24T02:39:40.121Z,943.6
2017-04-24T02:40:48.204Z,943.6
2017-04-24T02:41:56.293Z,943.6
2017-04-24T02:43:04.390Z,943.5
2017-04-24T02:44:12.600Z,943.5
2017-04-24T02:45:20.569Z,943.5
2017-04-24T02:46:28.659Z,943.5
2017-04-24T02:47:36.750Z,943.5
2017-04-24T02:48:44.838Z,943.5
2017-04-24T02:49:53.055Z,943.5
2017-04-24T02:51:01.128Z,943.5
2017-04-24T02:52:09.090Z,943.4
2017-04-24T02:53:17.177Z,943.4
2017-04-24T02:54:25.260Z,943.4
2017-04-24T02:55:33.404Z,943.4
2017-04-24T02:56:41.429Z,943.3
2017-04-24T02:57:49.518Z,943.4
2017-04-24T02:58:57.607Z,943.3
2017-04-24T03:00:05.827Z,943.3
2017-04-24T03:01:13.898Z,943.3
2017-04-24T03:02:21.863Z,943.3
2017-04-24T03:03:29.946Z,943.2
2017-04-24T03:04:38.028Z,943.3
2017-04-24T03:05:46.121Z,943.2
2017-04-24T03:06:54.326Z,943.2
2017-04-24T03:08:02.297Z,943.2
2017-04-24T03:09:10.382Z,943.2
2017-04-24T03:10:18.465Z,943.2
2017-04-24T03:11:26.634Z,943.2
2017-04-24T03:12:34.703Z,943.2
2017-04-24T03:13:42.721Z,943.2
2017-04-24T03:14:50.808Z,943.2
2017-04-24T03:15:58.888Z,943.2
2017-04-24T03:17:06.984Z,943.2
2017-04-24T03:18:15.182Z,943.2
2017-04-24T03:19:23.148Z,943.1
2017-04-24T03:20:31.232Z,943.1
2017-04-24T03:21:39.318Z,943.1
2017-04-24T03:22:47.576Z,943.1
2017-04-24T03:23:55.541Z,943.1
2017-04-24T03:25:03.576Z,943.0
2017-04-24T03:26:11.662Z,943.0
2017-04-24T03:27:19.741Z,943.0
2017-04-24T03:28:27.831Z,943.0
2017-04-24T03:29:36.037Z,943.0
2017-04-24T03:30:44.003Z,943.0
2017-04-24T03:31:52.083Z,943.0
2017-04-24T03:33:00.172Z,942.9
2017-04-24T03:34:08.262Z,943.0
2017-04-24T03:35:16.397Z,942.9
2017-04-24T03:36:24.432Z,942.9
2017-04-24T03:37:32.678Z,942.9
2017-04-24T03:38:40.719Z,942.9
2017-04-24T03:39:48.682Z,942.9
2017-04-24T03:40:56.826Z,942.9
2017-04-24T03:42:04.857Z,942.9
2017-04-24T03:43:12.959Z,942.9
2017-04-24T03:44:21.034Z,942.9
2017-04-24T03:45:29.113Z,942.9
2017-04-24T03:46:37.316Z,942.9
2017-04-24T03:47:45.279Z,942.9
2017-04-24T03:48:53.443Z,942.9
2017-04-24T03:50:02.195Z,942.9
2017-04-24T03:51:09.536Z,942.8
2017-04-24T03:52:17.683Z,942.8
2017-04-24T03:53:25.713Z,942.8
2017-04-24T03:54:34.037Z,942.8
2017-04-24T03:55:41.880Z,942.8
2017-04-24T03:56:49.976Z,942.8
2017-04-24T03:57:58.183Z,942.7
2017-04-24T03:59:06.142Z,942.7
2017-04-24T04:00:14.231Z,942.7
2017-04-24T04:01:22.314Z,942.7
2017-04-24T04:02:30.405Z,942.8
2017-04-24T04:03:38.549Z,942.7
2017-04-24T04:04:46.748Z,942.7
2017-04-24T04:05:54.832Z,942.7
2017-04-24T04:07:02.748Z,942.7
2017-04-24T04:08:10.840Z,942.7
2017-04-24T04:09:19.048Z,942.7
2017-04-24T04:10:27.074Z,942.7
2017-04-24T04:11:35.115Z,942.7
2017-04-24T04:12:43.191Z,942.7
2017-04-24T04:13:51.267Z,942.6
2017-04-24T04:14:59.410Z,942.6
2017-04-24T04:16:07.610Z,942.6
2017-04-24T04:17:15.534Z,942.6
2017-04-24T04:18:23.619Z,942.6
2017-04-24T04:19:31.698Z,942.6
2017-04-24T04:20:39.910Z,942.6
2017-04-24T04:21:47.904Z,942.6
2017-04-24T04:22:55.968Z,942.5
2017-04-24T04:24:04.058Z,942.5
2017-04-24T04:25:12.156Z,942.5
2017-04-24T04:26:20.382Z,942.5
2017-04-24T04:27:28.327Z,942.6
2017-04-24T04:28:36.398Z,942.5
2017-04-24T04:29:44.484Z,942.5
2017-04-24T04:30:52.568Z,942.6
2017-04-24T04:32:00.777Z,942.5
2017-04-24T04:33:08.746Z,942.6
2017-04-24T04:34:16.826Z,942.6
2017-04-24T04:35:24.915Z,942.6
2017-04-24T04:36:33.001Z,942.5
2017-04-24T04:37:41.229Z,942.5
2017-04-24T04:38:49.170Z,942.5
2017-04-24T04:39:57.261Z,942.5
2017-04-24T04:41:05.345Z,942.5
2017-04-24T04:42:13.548Z,942.5
2017-04-24T04:43:21.717Z,942.5
2017-04-24T04:44:29.602Z,942.5
2017-04-24T04:45:37.685Z,942.5
2017-04-24T04:46:45.768Z,942.5
2017-04-24T04:47:53.868Z,942.5
2017-04-24T04:49:02.003Z,942.5
2017-04-24T04:50:10.037Z,942.5
2017-04-24T04:51:18.124Z,942.5
2017-04-24T04:52:26.211Z,942.5
2017-04-24T04:53:34.318Z,942.5
2017-04-24T04:54:42.503Z,942.5
2017-04-24T04:55:50.464Z,942.5
2017-04-24T04:56:58.548Z,942.5
2017-04-24T04:58:06.685Z,942.5
2017-04-24T04:59:14.724Z,942.5
2017-04-24T05:00:22.923Z,942.5
2017-04-24T05:01:30.890Z,942.5
2017-04-24T05:02:38.975Z,942.5
2017-04-24T05:03:47.117Z,942.5
2017-04-24T05:04:55.208Z,942.5
2017-04-24T05:06:03.351Z,942.5
2017-04-24T05:07:11.319Z,942.5
2017-04-24T05:08:19.401Z,942.5
2017-04-24T05:09:27.517Z,942.5
2017-04-24T05:10:35.588Z,942.5
2017-04-24T05:11:43.716Z,942.5
2017-04-24T05:12:51.749Z,942.5
2017-04-24T05:13:59.954Z,942.5
2017-04-24T05:15:08.093Z,942.5
2017-04-24T05:16:16.017Z,942.5
2017-04-24T05:17:24.221Z,942.5
2017-04-24T05:18:32.185Z,942.5
2017-04-24T05:19:40.273Z,942.5
2017-04-24T05:20:48.357Z,942.5
2017-04-24T05:21:56.471Z,942.5
2017-04-24T05:23:05.270Z,942.5
2017-04-24T05:24:12.614Z,942.6
2017-04-24T05:25:20.695Z,942.5
2017-04-24T05:26:28.783Z,942.6
2017-04-24T05:27:36.869Z,942.6
2017-04-24T05:28:45.007Z,942.6
2017-04-24T05:29:53.153Z,942.6
2017-04-24T05:31:01.120Z,942.5
2017-04-24T05:32:09.209Z,942.5
2017-04-24T05:33:17.294Z,942.5
2017-04-24T05:34:25.499Z,942.5
2017-04-24T05:35:33.463Z,942.5
2017-04-24T05:36:41.544Z,942.6
2017-04-24T05:37:49.631Z,942.6
2017-04-24T05:38:57.716Z,942.6
2017-04-24T05:40:05.860Z,942.6
2017-04-24T05:41:13.884Z,942.5
2017-04-24T05:42:21.992Z,942.5
2017-04-24T05:43:30.082Z,942.6
2017-04-24T05:44:38.143Z,942.5
2017-04-24T05:45:46.343Z,942.5
2017-04-24T05:46:54.459Z,942.5
2017-04-24T05:48:02.543Z,942.5
2017-04-24T05:49:11.044Z,942.5
2017-04-24T05:50:19.238Z,942.5
2017-04-24T05:51:26.768Z,942.5
2017-04-24T05:52:34.732Z,942.5
2017-04-24T05:53:42.814Z,942.5
2017-04-24T05:54:50.903Z,942.6
2017-04-24T05:55:58.991Z,942.5
2017-04-24T05:57:07.189Z,942.6
2017-04-24T05:58:15.190Z,942.6
2017-04-24T05:59:23.244Z,942.6
2017-04-24T06:00:31.328Z,942.6
2017-04-24T06:01:39.530Z,942.6
2017-04-24T06:02:47.554Z,942.6
2017-04-24T06:03:55.577Z,942.6
2017-04-24T06:05:03.662Z,942.5
2017-04-24T06:06:11.752Z,942.5
2017-04-24T06:07:19.842Z,942.5
2017-04-24T06:08:28.043Z,942.5
2017-04-24T06:09:36.068Z,942.5
2017-04-24T06:10:44.095Z,942.5
2017-04-24T06:11:52.176Z,942.5
2017-04-24T06:13:00.260Z,942.5
2017-04-24T06:14:08.470Z,942.5
2017-04-24T06:15:16.430Z,942.5
2017-04-24T06:16:24.509Z,942.5
2017-04-24T06:17:32.715Z,942.5
2017-04-24T06:18:40.685Z,942.5
2017-04-24T06:19:48.888Z,942.5
2017-04-24T06:20:56.852Z,942.6
2017-04-24T06:22:04.943Z,942.6
2017-04-24T06:23:13.027Z,942.6
2017-04-24T06:24:21.286Z,942.6
2017-04-24T06:25:29.385Z,942.6
2017-04-24T06:26:37.286Z,942.6
2017-04-24T06:27:45.364Z,942.6
2017-04-24T06:28:53.443Z,942.6
2017-04-24T06:30:01.534Z,942.6
2017-04-24T06:31:09.721Z,942.6
2017-04-24T06:32:17.715Z,942.6
2017-04-24T06:33:25.920Z,942.6
2017-04-24T06:34:33.883Z,942.6
2017-04-24T06:35:42.141Z,942.6
2017-04-24T06:36:50.103Z,942.6
2017-04-24T06:37:58.136Z,942.6
2017-04-24T06:39:06.222Z,942.6
2017-04-24T06:40:14.304Z,942.6
2017-04-24T06:41:22.395Z,942.6
2017-04-24T06:42:30.645Z,942.6
2017-04-24T06:43:38.565Z,942.6
2017-04-24T06:44:46.644Z,942.6
2017-04-24T06:45:54.933Z,942.6
2017-04-24T06:47:02.998Z,942.5
2017-04-24T06:48:10.952Z,942.5
2017-04-24T06:49:19.105Z,942.5
2017-04-24T06:50:27.071Z,942.5
2017-04-24T06:51:35.172Z,942.5
2017-04-24T06:52:43.238Z,942.5
2017-04-24T06:53:51.386Z,942.5
2017-04-24T06:54:59.415Z,942.5
2017-04-24T06:56:07.497Z,942.5
2017-04-24T06:57:15.740Z,942.5
2017-04-24T06:58:23.666Z,942.5
2017-04-24T06:59:31.871Z,942.5
2017-04-24T07:00:39.840Z,942.5
2017-04-24T07:01:47.923Z,942.4
2017-04-24T07:02:56.015Z,942.5
2017-04-24T07:04:04.090Z,942.4
2017-04-24T07:05:12.295Z,942.4
2017-04-24T07:06:20.263Z,942.4
2017-04-24T07:07:28.515Z,942.4
2017-04-24T07:08:36.593Z,942.3
2017-04-24T07:09:44.514Z,942.3
2017-04-24T07:10:52.653Z,942.3
2017-04-24T07:12:00.681Z,942.3
2017-04-24T07:13:08.775Z,942.3
2017-04-24T07:14:16.862Z,942.2
2017-04-24T07:15:24.946Z,942.3
2017-04-24T07:16:33.151Z,942.3
2017-04-24T07:17:41.117Z,942.3
2017-04-24T07:18:49.214Z,942.3
2017-04-24T07:19:57.291Z,942.3
2017-04-24T07:21:05.496Z,942.3
2017-04-24T07:22:13.520Z,942.2
2017-04-24T07:23:21.549Z,942.2
2017-04-24T07:24:29.628Z,942.2
2017-04-24T07:25:37.716Z,942.2
2017-04-24T07:26:45.796Z,942.2
2017-04-24T07:27:54.004Z,942.1
2017-04-24T07:29:02.022Z,942.2
2017-04-24T07:30:10.083Z,942.2
2017-04-24T07:31:18.148Z,942.2
2017-04-24T07:32:26.232Z,942.2
2017-04-24T07:33:34.379Z,942.2
2017-04-24T07:34:42.525Z,942.2
2017-04-24T07:35:50.481Z,942.2
2017-04-24T07:36:58.696Z,942.2
2017-04-24T07:38:06.656Z,942.2
2017-04-24T07:39:14.791Z,942.2
2017-04-24T07:40:22.822Z,942.2
2017-04-24T07:41:30.920Z,942.2
2017-04-24T07:42:39.000Z,942.2
2017-04-24T07:43:47.079Z,942.2
2017-04-24T07:44:55.324Z,942.2
2017-04-24T07:46:03.294Z,942.2
2017-04-24T07:47:11.337Z,942.2
2017-04-24T07:48:19.425Z,942.2
2017-04-24T07:49:27.510Z,942.2
2017-04-24T07:50:35.707Z,942.1
2017-04-24T07:51:43.672Z,942.1
2017-04-24T07:52:51.815Z,942.1
2017-04-24T07:53:59.849Z,942.1
2017-04-24T07:55:07.933Z,942.1
2017-04-24T07:56:16.268Z,942.1
2017-04-24T07:57:24.114Z,942.1
2017-04-24T07:58:32.187Z,942.0
2017-04-24T07:59:40.269Z,942.1
2017-04-24T08:00:48.357Z,942.0
2017-04-24T08:01:56.576Z,942.0
2017-04-24T08:03:04.536Z,942.0
2017-04-24T08:04:12.609Z,942.0
2017-04-24T08:05:20.695Z,942.0
2017-04-24T08:06:28.944Z,942.1
2017-04-24T08:07:37.074Z,942.0
2017-04-24T08:08:45.069Z,942.0
2017-04-24T08:09:53.034Z,942.0
2017-04-24T08:11:01.112Z,942.0
2017-04-24T08:12:09.200Z,942.0
2017-04-24T08:13:17.404Z,942.0
2017-04-24T08:14:25.367Z,942.0
2017-04-24T08:15:33.449Z,942.0
2017-04-24T08:16:41.538Z,941.9
2017-04-24T08:17:49.808Z,941.9
2017-04-24T08:18:57.828Z,941.9
2017-04-24T08:20:05.789Z,941.9
2017-04-24T08:21:13.880Z,941.9
2017-04-24T08:22:21.956Z,941.8
2017-04-24T08:23:30.044Z,941.9
2017-04-24T08:24:38.256Z,941.9
2017-04-24T08:25:46.208Z,941.9
2017-04-24T08:26:54.295Z,941.9
2017-04-24T08:28:02.549Z,941.8
2017-04-24T08:29:10.631Z,941.9
2017-04-24T08:30:18.675Z,941.9
2017-04-24T08:31:26.638Z,941.9
2017-04-24T08:32:34.727Z,941.8
2017-04-24T08:33:42.807Z,941.9
2017-04-24T08:34:50.894Z,941.8
2017-04-24T08:35:59.099Z,941.8
2017-04-24T08:37:07.063Z,941.8
2017-04-24T08:38:15.143Z,941.8
2017-04-24T08:39:23.262Z,941.8
2017-04-24T08:40:31.371Z,941.8
2017-04-24T08:41:39.520Z,941.8
2017-04-24T08:42:47.481Z,941.8
2017-04-24T08:43:55.569Z,941.8
2017-04-24T08:45:03.652Z,941.8
2017-04-24T08:46:11.742Z,941.8
2017-04-24T08:47:19.944Z,941.7
2017-04-24T08:48:27.910Z,941.7
2017-04-24T08:49:36.067Z,941.8
2017-04-24T08:50:44.136Z,941.7
2017-04-24T08:51:52.165Z,941.7
2017-04-24T08:53:00.371Z,941.7
2017-04-24T08:54:08.336Z,941.7
2017-04-24T08:55:16.620Z,941.7
2017-04-24T08:56:24.564Z,941.7
2017-04-24T08:57:32.595Z,941.7
2017-04-24T08:58:40.796Z,941.7
2017-04-24T08:59:48.763Z,941.7
2017-04-24T09:00:56.907Z,941.7
2017-04-24T09:02:04.927Z,941.7
2017-04-24T09:03:13.016Z,941.7
2017-04-24T09:04:21.222Z,941.7
2017-04-24T09:05:29.351Z,941.7
2017-04-24T09:06:37.270Z,941.7
2017-04-24T09:07:45.364Z,941.7
2017-04-24T09:08:53.444Z,941.7
2017-04-24T09:10:01.582Z,941.7
2017-04-24T09:11:09.613Z,941.7
2017-04-24T09:12:18.296Z,941.7
2017-04-24T09:13:25.779Z,941.7
2017-04-24T09:14:33.865Z,941.7
2017-04-24T09:15:42.069Z,941.6
2017-04-24T09:16:50.037Z,941.6
2017-04-24T09:17:58.117Z,941.6
2017-04-24T09:19:06.209Z,941.6
2017-04-24T09:20:14.294Z,941.5
2017-04-24T09:21:22.507Z,941.6
2017-04-24T09:22:30.537Z,941.6
2017-04-24T09:23:38.547Z,941.6
2017-04-24T09:24:46.631Z,941.6
2017-04-24T09:25:54.717Z,941.6
2017-04-24T09:27:02.934Z,941.5
2017-04-24T09:28:10.951Z,941.5
2017-04-24T09:29:18.978Z,941.5
2017-04-24T09:30:27.057Z,941.5
2017-04-24T09:31:35.155Z,941.6
2017-04-24T09:32:43.361Z,941.6
2017-04-24T09:33:51.321Z,941.5
2017-04-24T09:34:59.415Z,941.6
2017-04-24T09:36:07.495Z,941.5
2017-04-24T09:37:15.578Z,941.5
2017-04-24T09:38:23.965Z,941.5
2017-04-24T09:39:31.752Z,941.5
2017-04-24T09:40:39.838Z,941.5
2017-04-24T09:41:47.916Z,941.5
2017-04-24T09:42:56.005Z,941.5
2017-04-24T09:44:04.249Z,941.5
2017-04-24T09:45:12.190Z,941.5
2017-04-24T09:46:20.278Z,941.4
2017-04-24T09:47:28.361Z,941.4
2017-04-24T09:48:36.638Z,941.4
2017-04-24T09:49:44.824Z,941.4
2017-04-24T09:50:52.621Z,941.4
2017-04-24T09:52:00.710Z,941.4
2017-04-24T09:53:08.795Z,941.3
2017-04-24T09:54:16.882Z,941.4
2017-04-24T09:55:25.086Z,941.3
2017-04-24T09:56:33.103Z,941.3
2017-04-24T09:57:41.135Z,941.3
2017-04-24T09:58:49.223Z,941.3
2017-04-24T09:59:57.380Z,941.3
2017-04-24T10:01:05.511Z,941.2
2017-04-24T10:02:13.477Z,941.2
2017-04-24T10:03:21.566Z,941.2
2017-04-24T10:04:29.656Z,941.2
2017-04-24T10:05:37.739Z,941.2
2017-04-24T10:06:45.947Z,941.2
2017-04-24T10:07:53.915Z,941.2
2017-04-24T10:09:01.996Z,941.2
2017-04-24T10:10:10.757Z,941.1
2017-04-24T10:11:18.174Z,941.1
2017-04-24T10:12:26.380Z,941.1
2017-04-24T10:13:34.946Z,941.1
2017-04-24T10:14:42.954Z,941.1
2017-04-24T10:15:50.799Z,941.1
2017-04-24T10:16:58.780Z,941.1
2017-04-24T10:18:06.747Z,941.1
2017-04-24T10:19:15.369Z,941.1
2017-04-24T10:20:23.315Z,941.1
2017-04-24T10:21:30.945Z,941.1
2017-04-24T10:22:39.120Z,941.1
2017-04-24T10:23:47.258Z,941.0
2017-04-24T10:24:55.202Z,941.0
2017-04-24T10:26:03.487Z,941.0
2017-04-24T10:27:11.657Z,941.0
2017-04-24T10:28:19.900Z,941.0
2017-04-24T10:29:27.605Z,940.9
2017-04-24T10:30:35.637Z,940.9
2017-04-24T10:31:43.899Z,940.9
2017-04-24T10:32:51.852Z,940.9
2017-04-24T10:33:59.891Z,940.9
2017-04-24T10:35:08.032Z,940.9
2017-04-24T10:36:16.058Z,940.9
2017-04-24T10:37:24.651Z,940.9
2017-04-24T10:38:32.233Z,940.9
2017-04-24T10:39:40.757Z,940.8
2017-04-24T10:40:48.525Z,940.8
2017-04-24T10:41:56.494Z,940.8
2017-04-24T10:43:04.592Z,940.8
2017-04-24T10:44:13.042Z,940.8
2017-04-24T10:45:20.749Z,940.9
2017-04-24T10:46:28.954Z,940.8
2017-04-24T10:47:37.147Z,940.7
2017-04-24T10:48:45.065Z,940.6
2017-04-24T10:49:53.088Z,940.6
2017-04-24T10:51:01.846Z,940.6
2017-04-24T10:52:09.311Z,940.6
2017-04-24T10:53:17.393Z,940.7
2017-04-24T10:54:26.018Z,940.7
2017-04-24T10:55:34.022Z,940.6
2017-04-24T10:56:41.602Z,940.6
2017-04-24T10:57:49.811Z,940.6
2017-04-24T10:58:57.890Z,940.6
2017-04-24T11:00:05.855Z,940.6
2017-04-24T11:01:13.948Z,940.5
2017-04-24T11:02:22.035Z,940.5
2017-04-24T11:03:30.245Z,940.5
2017-04-24T11:04:38.204Z,940.5
2017-04-24T11:05:46.294Z,940.5
2017-04-24T11:06:54.381Z,940.4
2017-04-24T11:08:02.466Z,940.3
2017-04-24T11:09:10.724Z,940.4
2017-04-24T11:10:18.666Z,940.4
2017-04-24T11:11:26.717Z,940.4
2017-04-24T11:12:34.809Z,940.4
2017-04-24T11:13:43.081Z,940.3
2017-04-24T11:14:51.266Z,940.3
2017-04-24T11:15:59.062Z,940.3
2017-04-24T11:17:07.152Z,940.3
2017-04-24T11:18:15.242Z,940.3
2017-04-24T11:19:23.451Z,940.3
2017-04-24T11:20:31.468Z,940.2
2017-04-24T11:21:39.500Z,940.2
2017-04-24T11:22:47.591Z,940.2
2017-04-24T11:23:55.678Z,940.2
2017-04-24T11:25:03.881Z,940.2
2017-04-24T11:26:11.967Z,940.2
2017-04-24T11:27:19.934Z,940.2
2017-04-24T11:28:28.030Z,940.2
2017-04-24T11:29:36.108Z,940.1
2017-04-24T11:30:44.196Z,940.1
2017-04-24T11:31:52.402Z,940.1
2017-04-24T11:33:00.367Z,940.0
2017-04-24T11:34:08.451Z,940.1
2017-04-24T11:35:16.759Z,940.0
2017-04-24T11:36:24.724Z,940.0
2017-04-24T11:37:32.829Z,940.0
2017-04-24T11:38:40.798Z,940.0
2017-04-24T11:39:48.879Z,939.9
2017-04-24T11:40:56.968Z,940.0
2017-04-24T11:42:05.063Z,939.9
2017-04-24T11:43:13.195Z,939.9
2017-04-24T11:44:21.224Z,939.9
2017-04-24T11:45:29.317Z,939.9
2017-04-24T11:46:37.498Z,939.9
2017-04-24T11:47:45.478Z,939.9
2017-04-24T11:48:53.690Z,939.8
2017-04-24T11:50:01.656Z,939.8
2017-04-24T11:51:09.789Z,939.8
2017-04-24T11:52:17.826Z,939.8
2017-04-24T11:53:25.913Z,939.8
2017-04-24T11:54:34.117Z,939.7
2017-04-24T11:55:42.080Z,939.8
2017-04-24T11:56:50.166Z,939.8
2017-04-24T11:57:58.252Z,939.8
2017-04-24T11:59:06.341Z,939.7
2017-04-24T12:00:14.548Z,939.7
2017-04-24T12:01:22.516Z,939.7
2017-04-24T12:02:30.601Z,939.7
2017-04-24T12:03:38.685Z,939.7
2017-04-24T12:04:46.774Z,939.6
2017-04-24T12:05:54.917Z,939.6
2017-04-24T12:07:03.065Z,939.6
2017-04-24T12:08:11.101Z,939.6
2017-04-24T12:09:19.117Z,939.6
2017-04-24T12:10:27.198Z,939.7
2017-04-24T12:11:35.336Z,939.6
2017-04-24T12:12:43.557Z,939.6
2017-04-24T12:13:51.634Z,939.6
2017-04-24T12:14:59.541Z,939.5
2017-04-24T12:16:07.629Z,939.5
2017-04-24T12:17:15.838Z,939.5
2017-04-24T12:18:23.805Z,939.5
2017-04-24T12:19:31.889Z,939.4
2017-04-24T12:20:39.978Z,939.5
2017-04-24T12:21:48.640Z,939.5
2017-04-24T12:22:56.310Z,939.4
2017-04-24T12:24:04.239Z,939.5
2017-04-24T12:25:12.326Z,939.5
2017-04-24T12:26:20.406Z,939.5
2017-04-24T12:27:28.496Z,939.4
2017-04-24T12:28:36.641Z,939.4
2017-04-24T12:29:44.667Z,939.4
2017-04-24T12:30:52.758Z,939.3
2017-04-24T12:32:00.846Z,939.3
2017-04-24T12:33:08.927Z,939.3
2017-04-24T12:34:17.177Z,939.3
2017-04-24T12:35:25.117Z,939.3
2017-04-24T12:36:33.193Z,939.2
2017-04-24T12:37:41.279Z,939.3
2017-04-24T12:38:49.813Z,939.2
2017-04-24T12:39:57.637Z,939.2
2017-04-24T12:41:05.544Z,939.1
2017-04-24T12:42:13.628Z,939.1
2017-04-24T12:43:21.861Z,939.1
2017-04-24T12:44:29.902Z,939.1
2017-04-24T12:45:38.010Z,939.1
2017-04-24T12:46:45.967Z,939.0
2017-04-24T12:47:54.063Z,939.1
2017-04-24T12:49:02.143Z,939.0
2017-04-24T12:50:10.223Z,939.1
2017-04-24T12:51:18.439Z,939.1
2017-04-24T12:52:26.404Z,939.0
2017-04-24T12:53:34.490Z,939.0
2017-04-24T12:54:42.824Z,939.0
2017-04-24T12:55:50.658Z,939.0
2017-04-24T12:56:58.861Z,939.0
2017-04-24T12:58:06.822Z,939.0
2017-04-24T12:59:14.910Z,939.0
2017-04-24T13:00:23.034Z,939.0
2017-04-24T13:01:31.117Z,938.9
2017-04-24T13:02:39.290Z,938.9
2017-04-24T13:03:47.253Z,938.8
2017-04-24T13:04:55.339Z,938.9
2017-04-24T13:06:03.424Z,938.8
2017-04-24T13:07:11.508Z,938.8
2017-04-24T13:08:19.648Z,938.8
2017-04-24T13:09:27.717Z,938.8
2017-04-24T13:10:35.886Z,938.8
2017-04-24T13:11:43.923Z,938.8
2017-04-24T13:12:52.050Z,938.7
2017-04-24T13:14:00.150Z,938.7
2017-04-24T13:15:08.116Z,938.6
2017-04-24T13:16:16.201Z,938.6
2017-04-24T13:17:24.296Z,938.5
2017-04-24T13:18:32.369Z,938.5
2017-04-24T13:19:40.573Z,938.5
2017-04-24T13:20:48.538Z,938.5
2017-04-24T13:21:56.623Z,938.5
2017-04-24T13:23:04.798Z,938.4
2017-04-24T13:24:12.801Z,938.5
2017-04-24T13:25:21.000Z,938.5
2017-04-24T13:26:29.020Z,938.5
2017-04-24T13:27:37.053Z,938.4
2017-04-24T13:28:45.139Z,938.4
2017-04-24T13:29:53.217Z,938.4
2017-04-24T13:31:01.428Z,938.4
2017-04-24T13:32:09.398Z,938.4
2017-04-24T13:33:17.509Z,938.4
2017-04-24T13:34:25.588Z,938.3
2017-04-24T13:35:33.649Z,938.3
2017-04-24T13:36:41.852Z,938.3
2017-04-24T13:37:49.989Z,938.4
2017-04-24T13:38:58.081Z,938.3
2017-04-24T13:40:06.020Z,938.3
2017-04-24T13:41:14.085Z,938.2
2017-04-24T13:42:22.286Z,938.2
2017-04-24T13:43:30.255Z,938.2
2017-04-24T13:44:38.348Z,938.2
2017-04-24T13:45:46.430Z,938.1
2017-04-24T13:46:54.519Z,938.1
2017-04-24T13:48:02.732Z,938.1
2017-04-24T13:49:10.822Z,938.1
2017-04-24T13:50:18.775Z,938.1
2017-04-24T13:51:26.865Z,938.1
2017-04-24T13:52:34.953Z,938.1
2017-04-24T13:53:43.096Z,938.1
2017-04-24T13:54:51.125Z,938.1
2017-04-24T13:55:59.209Z,938.1
2017-04-24T13:57:07.291Z,938.0
2017-04-24T13:58:15.436Z,938.1
2017-04-24T13:59:23.693Z,938.0
2017-04-24T14:00:31.637Z,938.0
2017-04-24T14:01:39.626Z,938.0
2017-04-24T14:02:47.719Z,938.0
2017-04-24T14:03:55.804Z,938.0
2017-04-24T14:05:04.005Z,938.0
2017-04-24T14:06:11.974Z,938.0
2017-04-24T14:07:20.058Z,938.0
2017-04-24T14:08:28.149Z,937.9
2017-04-24T14:09:36.225Z,937.9
2017-04-24T14:10:44.434Z,937.9
2017-04-24T14:11:52.396Z,937.9
2017-04-24T14:13:00.481Z,937.9
2017-04-24T14:14:08.626Z,937.8
2017-04-24T14:15:16.654Z,937.8
2017-04-24T14:16:24.858Z,937.8
2017-04-24T14:17:32.832Z,937.8
2017-04-24T14:18:40.910Z,937.8
2017-04-24T14:19:49.002Z,937.8
2017-04-24T14:20:57.152Z,937.8
2017-04-24T14:22:05.290Z,937.8
2017-04-24T14:23:13.258Z,937.7
2017-04-24T14:24:21.345Z,937.7
2017-04-24T14:25:29.434Z,937.7
2017-04-24T14:26:37.522Z,937.7
2017-04-24T14:27:45.666Z,937.6
2017-04-24T14:28:53.687Z,937.6
2017-04-24T14:30:01.898Z,937.6
2017-04-24T14:31:09.872Z,937.6
2017-04-24T14:32:17.993Z,937.6
2017-04-24T14:33:26.168Z,937.6
2017-04-24T14:34:34.126Z,937.5
2017-04-24T14:35:42.208Z,937.5
2017-04-24T14:36:50.295Z,937.5